createdAt,value
2018-06-29T00:00:18.494Z,23.81
2018-06-29T00:02:47.609Z,23.81
2018-06-29T00:05:16.708Z,23.82
2018-06-29T00:07:45.793Z,23.84
2018-06-29T00:10:22.882Z,23.77
2018-06-29T00:12:52.251Z,23.77
2018-06-29T00:15:21.690Z,23.69
2018-06-29T00:17:50.981Z,23.55
2018-06-29T00:20:20.087Z,23.47
2018-06-29T00:22:49.167Z,23.49
2018-06-29T00:25:19.012Z,23.45
2018-06-29T00:27:48.100Z,23.38
2018-06-29T00:30:17.236Z,23.23
2018-06-29T00:32:46.296Z,23.14
2018-06-29T00:35:15.380Z,23.20
2018-06-29T00:37:44.855Z,23.31
2018-06-29T00:40:14.695Z,23.32
2018-06-29T00:42:43.779Z,23.30
2018-06-29T00:45:12.854Z,23.31
2018-06-29T00:47:41.893Z,23.32
2018-06-29T00:50:10.951Z,23.25
2018-06-29T00:52:39.974Z,23.29
2018-06-29T00:55:09.063Z,23.25
2018-06-29T00:57:38.150Z,23.22
2018-06-29T01:00:08.354Z,23.19
2018-06-29T01:02:37.722Z,23.11
2018-06-29T01:05:06.798Z,23.08
2018-06-29T01:07:35.877Z,22.44
2018-06-29T01:10:05.054Z,23.00
2018-06-29T01:12:34.124Z,23.01
2018-06-29T01:15:03.243Z,23.01
2018-06-29T01:17:32.352Z,22.97
2018-06-29T01:20:01.385Z,22.96
2018-06-29T01:22:30.499Z,22.36
2018-06-29T01:24:59.544Z,23.06
2018-06-29T01:27:28.625Z,23.07
2018-06-29T01:29:57.674Z,23.03
2018-06-29T01:32:26.788Z,22.94
2018-06-29T01:34:55.904Z,22.97
2018-06-29T01:37:24.970Z,22.90
2018-06-29T01:42:21.871Z,22.63
2018-06-29T01:44:50.941Z,22.56
2018-06-29T01:47:20.001Z,22.47
2018-06-29T01:49:49.120Z,22.25
2018-06-29T01:52:18.275Z,22.15
2018-06-29T01:54:47.416Z,22.07
2018-06-29T01:57:16.543Z,22.07
2018-06-29T01:59:45.562Z,22.09
2018-06-29T02:02:14.646Z,22.12
2018-06-29T02:04:43.788Z,22.36
2018-06-29T02:07:12.895Z,22.47
2018-06-29T02:09:41.918Z,22.54
2018-06-29T02:12:12.247Z,22.60
2018-06-29T02:14:41.369Z,22.67
2018-06-29T02:17:10.435Z,22.70
2018-06-29T02:19:39.529Z,22.71
2018-06-29T02:22:08.730Z,22.74
2018-06-29T02:24:37.828Z,22.68
2018-06-29T02:27:07.191Z,22.72
2018-06-29T02:29:37.042Z,22.78
2018-06-29T02:32:06.146Z,22.75
2018-06-29T02:34:35.451Z,22.70
2018-06-29T02:37:04.622Z,22.69
2018-06-29T02:39:33.730Z,22.65
2018-06-29T02:42:02.770Z,22.25
2018-06-29T02:44:31.818Z,22.69
2018-06-29T02:47:00.931Z,22.67
2018-06-29T02:49:30.082Z,22.68
2018-06-29T02:51:59.186Z,22.68
2018-06-29T02:54:28.277Z,22.63
2018-06-29T02:56:57.354Z,22.69
2018-06-29T02:59:26.410Z,22.65
2018-06-29T03:01:55.454Z,22.64
2018-06-29T03:04:24.525Z,22.58
2018-06-29T03:06:53.567Z,22.58
2018-06-29T03:09:23.214Z,22.59
2018-06-29T03:11:52.303Z,22.52
2018-06-29T03:14:21.405Z,22.46
2018-06-29T03:16:50.543Z,22.45
2018-06-29T03:19:19.610Z,22.50
2018-06-29T03:21:48.921Z,22.52
2018-06-29T03:24:18.361Z,22.60
2018-06-29T03:26:47.433Z,22.50
2018-06-29T03:29:16.474Z,22.50
2018-06-29T03:31:45.578Z,22.45
2018-06-29T03:34:14.675Z,22.49
2018-06-29T03:36:43.842Z,22.44
2018-06-29T03:39:12.901Z,22.34
2018-06-29T03:41:42.045Z,22.38
2018-06-29T03:44:11.054Z,22.33
2018-06-29T03:46:40.186Z,22.25
2018-06-29T03:49:09.254Z,22.18
2018-06-29T03:51:38.329Z,22.21
2018-06-29T03:54:07.420Z,22.32
2018-06-29T03:56:36.530Z,22.32
2018-06-29T03:59:05.678Z,22.28
2018-06-29T04:01:34.730Z,22.17
2018-06-29T04:04:03.884Z,22.20
2018-06-29T04:06:32.926Z,22.17
2018-06-29T04:09:02.082Z,22.06
2018-06-29T04:11:31.193Z,22.09
2018-06-29T04:14:00.255Z,22.05
2018-06-29T04:16:29.359Z,22.04
2018-06-29T04:18:58.484Z,22.01
2018-06-29T04:21:28.278Z,22.06
2018-06-29T04:23:57.411Z,22.07
2018-06-29T04:26:26.635Z,22.18
2018-06-29T04:28:55.735Z,22.16
2018-06-29T04:31:24.838Z,22.12
2018-06-29T04:33:53.951Z,22.17
2018-06-29T04:36:22.970Z,22.16
2018-06-29T04:38:52.042Z,22.11
2018-06-29T04:41:21.085Z,22.17
2018-06-29T04:43:50.362Z,22.19
2018-06-29T04:46:19.474Z,22.29
2018-06-29T04:48:48.638Z,22.42
2018-06-29T04:51:17.825Z,22.45
2018-06-29T04:53:46.930Z,22.47
2018-06-29T04:56:16.066Z,22.56
2018-06-29T04:58:45.213Z,22.56
2018-06-29T05:01:14.289Z,22.64
2018-06-29T05:03:43.869Z,22.58
2018-06-29T05:06:13.017Z,22.55
2018-06-29T05:08:42.186Z,22.52
2018-06-29T05:11:11.185Z,22.48
2018-06-29T05:13:40.254Z,22.51
2018-06-29T05:16:09.329Z,22.56
2018-06-29T05:18:38.420Z,22.58
2018-06-29T05:21:07.565Z,21.27
2018-06-29T05:23:36.608Z,22.54
2018-06-29T05:26:05.746Z,22.58
2018-06-29T05:28:34.841Z,22.68
2018-06-29T05:31:03.852Z,22.72
2018-06-29T05:33:32.909Z,22.80
2018-06-29T05:36:02.134Z,22.77
2018-06-29T05:38:31.238Z,22.77
2018-06-29T05:41:00.458Z,22.80
2018-06-29T05:43:29.501Z,22.84
2018-06-29T05:45:58.600Z,22.89
2018-06-29T05:48:27.653Z,22.91
2018-06-29T05:50:56.745Z,22.87
2018-06-29T05:53:25.790Z,22.85
2018-06-29T05:55:55.162Z,22.90
2018-06-29T05:58:24.336Z,22.94
2018-06-29T06:00:53.532Z,22.95
2018-06-29T06:03:22.637Z,23.00
2018-06-29T06:05:51.727Z,23.04
2018-06-29T06:08:20.822Z,23.13
2018-06-29T06:10:49.914Z,23.19
2018-06-29T06:13:19.027Z,23.13
2018-06-29T06:15:48.167Z,23.22
2018-06-29T06:18:17.310Z,23.28
2018-06-29T06:20:46.359Z,23.27
2018-06-29T06:23:17.593Z,23.32
2018-06-29T06:25:46.889Z,23.33
2018-06-29T06:28:16.410Z,23.29
2018-06-29T06:30:45.472Z,23.30
2018-06-29T06:33:14.580Z,23.30
2018-06-29T06:35:43.682Z,23.30
2018-06-29T06:38:12.982Z,23.31
2018-06-29T06:40:42.104Z,23.27
2018-06-29T06:43:11.129Z,23.34
2018-06-29T06:45:40.250Z,23.37
2018-06-29T06:48:09.560Z,23.30
2018-06-29T06:50:38.709Z,23.34
2018-06-29T06:53:07.945Z,23.38
2018-06-29T06:55:37.454Z,23.38
2018-06-29T06:58:06.608Z,23.34
2018-06-29T07:00:35.739Z,22.96
2018-06-29T07:03:05.165Z,23.34
2018-06-29T07:05:34.243Z,23.35
2018-06-29T07:08:04.183Z,23.42
2018-06-29T07:10:33.369Z,23.40
2018-06-29T07:13:02.495Z,23.46
2018-06-29T07:15:31.583Z,23.54
2018-06-29T07:18:00.697Z,23.50
2018-06-29T07:20:29.806Z,23.57
2018-06-29T07:22:59.039Z,23.71
2018-06-29T07:25:28.172Z,23.80
2018-06-29T07:27:57.273Z,24.06
2018-06-29T07:30:26.344Z,24.16
2018-06-29T07:32:56.970Z,24.19
2018-06-29T07:35:26.134Z,24.30
2018-06-29T07:37:55.240Z,24.50
2018-06-29T07:40:24.270Z,24.77
2018-06-29T07:42:53.412Z,25.09
2018-06-29T07:45:22.606Z,25.22
2018-06-29T07:47:51.646Z,25.34
2018-06-29T07:50:20.754Z,25.12
2018-06-29T07:52:49.898Z,24.73
2018-06-29T07:55:18.996Z,24.61
2018-06-29T07:57:48.426Z,24.69
2018-06-29T08:00:17.585Z,24.65
2018-06-29T08:02:46.881Z,24.69
2018-06-29T08:05:15.911Z,24.60
2018-06-29T08:07:45.221Z,24.63
2018-06-29T08:10:14.283Z,24.76
2018-06-29T08:12:43.478Z,24.89
2018-06-29T08:15:12.544Z,24.99
2018-06-29T08:17:41.681Z,25.15
2018-06-29T08:20:10.734Z,25.28
2018-06-29T08:22:39.894Z,25.33
2018-06-29T08:25:13.244Z,25.38
2018-06-29T08:27:42.670Z,25.40
2018-06-29T08:30:12.606Z,25.43
2018-06-29T08:32:41.664Z,25.50
2018-06-29T08:35:11.244Z,25.60
2018-06-29T08:37:40.715Z,25.77
2018-06-29T08:40:10.182Z,25.90
2018-06-29T08:42:39.340Z,26.05
2018-06-29T08:45:09.278Z,25.61
2018-06-29T08:47:39.057Z,26.34
2018-06-29T08:50:08.090Z,26.44
2018-06-29T08:52:37.213Z,26.61
2018-06-29T08:55:06.371Z,26.63
2018-06-29T08:57:35.526Z,26.78
2018-06-29T09:00:06.187Z,26.97
2018-06-29T09:02:35.455Z,27.13
2018-06-29T09:05:05.075Z,27.24
2018-06-29T09:07:34.679Z,27.33
2018-06-29T09:10:03.767Z,27.45
2018-06-29T09:12:32.877Z,27.60
2018-06-29T09:15:02.005Z,27.66
2018-06-29T09:17:31.223Z,27.42
2018-06-29T09:20:00.366Z,27.33
2018-06-29T09:22:29.465Z,27.01
2018-06-29T09:24:58.579Z,26.77
2018-06-29T09:27:27.699Z,26.89
2018-06-29T09:29:56.833Z,26.96
2018-06-29T09:32:25.895Z,27.06
2018-06-29T09:34:55.029Z,27.16
2018-06-29T09:37:24.081Z,27.28
2018-06-29T09:39:53.431Z,27.38
2018-06-29T09:42:22.523Z,27.54
2018-06-29T09:44:51.661Z,27.64
2018-06-29T09:47:20.755Z,27.73
2018-06-29T09:49:49.845Z,27.77
2018-06-29T09:52:18.964Z,27.83
2018-06-29T09:54:48.011Z,27.83
2018-06-29T09:57:17.094Z,27.93
2018-06-29T09:59:46.380Z,28.07
2018-06-29T10:02:15.524Z,27.95
2018-06-29T10:04:44.940Z,27.86
2018-06-29T10:07:13.998Z,27.77
2018-06-29T10:09:43.256Z,27.85
2018-06-29T10:12:13.492Z,25.63
2018-06-29T10:14:42.882Z,27.84
2018-06-29T10:17:11.975Z,28.10
2018-06-29T10:19:41.231Z,28.34
2018-06-29T10:22:10.335Z,28.48
2018-06-29T10:24:39.981Z,28.81
2018-06-29T10:27:09.080Z,28.59
2018-06-29T10:29:39.651Z,27.76
2018-06-29T10:32:09.345Z,28.58
2018-06-29T10:34:38.621Z,28.71
2018-06-29T10:37:08.439Z,28.88
2018-06-29T10:39:38.057Z,29.02
2018-06-29T10:42:07.653Z,29.04
2018-06-29T10:44:36.809Z,28.85
2018-06-29T10:47:05.894Z,28.46
2018-06-29T10:49:34.990Z,28.64
2018-06-29T10:52:04.122Z,28.92
2018-06-29T10:54:33.268Z,28.97
2018-06-29T10:57:02.321Z,28.71
2018-06-29T10:59:31.406Z,28.47
2018-06-29T11:02:00.500Z,28.45
2018-06-29T11:04:29.654Z,28.82
2018-06-29T11:06:58.723Z,29.09
2018-06-29T11:09:27.793Z,29.21
2018-06-29T11:11:57.010Z,29.49
2018-06-29T11:14:26.081Z,29.74
2018-06-29T11:16:55.387Z,29.88
2018-06-29T11:19:24.429Z,29.94
2018-06-29T11:21:53.580Z,29.89
2018-06-29T11:24:22.791Z,30.06
2018-06-29T11:26:52.175Z,30.22
2018-06-29T11:29:21.277Z,30.20
2018-06-29T11:31:50.399Z,30.37
2018-06-29T11:34:19.565Z,30.47
2018-06-29T11:36:48.693Z,30.60
2018-06-29T11:39:17.722Z,30.84
2018-06-29T11:41:46.845Z,30.94
2018-06-29T11:44:16.073Z,31.21
2018-06-29T11:46:45.104Z,31.33
2018-06-29T11:49:14.162Z,31.39
2018-06-29T11:51:44.266Z,31.08
2018-06-29T11:54:13.382Z,31.10
2018-06-29T11:56:42.514Z,30.90
2018-06-29T11:59:11.767Z,31.03
2018-06-29T12:01:40.850Z,30.70
2018-06-29T12:04:09.933Z,31.05
2018-06-29T12:06:38.989Z,31.44
2018-06-29T12:09:09.977Z,31.47
2018-06-29T12:11:40.419Z,31.42
2018-06-29T12:14:09.565Z,31.12
2018-06-29T12:16:38.641Z,30.93
2018-06-29T12:19:07.696Z,30.79
2018-06-29T12:21:37.072Z,30.49
2018-06-29T12:24:06.169Z,30.65
2018-06-29T12:26:35.210Z,30.85
2018-06-29T12:29:04.421Z,30.89
2018-06-29T12:31:33.539Z,30.41
2018-06-29T12:34:02.642Z,30.42
2018-06-29T12:36:31.764Z,30.88
2018-06-29T12:39:00.800Z,30.87
2018-06-29T12:41:29.941Z,31.25
2018-06-29T12:43:59.013Z,31.53
2018-06-29T12:46:28.169Z,31.85
2018-06-29T12:48:57.327Z,32.41
2018-06-29T12:51:26.656Z,32.38
2018-06-29T12:53:55.733Z,32.71
2018-06-29T12:56:24.900Z,32.09
2018-06-29T12:58:54.034Z,32.01
2018-06-29T13:01:23.185Z,31.90
2018-06-29T13:03:52.220Z,31.91
2018-06-29T13:06:21.434Z,31.61
2018-06-29T13:08:50.517Z,31.09
2018-06-29T13:11:19.636Z,31.01
2018-06-29T13:13:48.827Z,31.18
2018-06-29T13:16:17.907Z,31.24
2018-06-29T13:18:47.005Z,31.28
2018-06-29T13:21:16.174Z,31.43
2018-06-29T13:23:45.298Z,31.30
2018-06-29T13:26:14.389Z,31.32
2018-06-29T13:28:43.564Z,31.47
2018-06-29T13:31:12.680Z,31.41
2018-06-29T13:33:41.941Z,31.41
2018-06-29T13:36:11.118Z,31.08
2018-06-29T13:38:40.148Z,31.09
2018-06-29T13:41:09.269Z,31.23
2018-06-29T13:43:38.427Z,31.60
2018-06-29T13:46:07.610Z,31.81
2018-06-29T13:48:36.759Z,31.76
2018-06-29T13:51:05.860Z,31.97
2018-06-29T13:53:35.572Z,32.39
2018-06-29T13:56:04.728Z,32.69
2018-06-29T13:58:33.886Z,32.95
2018-06-29T14:01:02.923Z,33.22
2018-06-29T14:03:32.275Z,33.42
2018-06-29T14:06:01.334Z,32.73
2018-06-29T14:08:30.661Z,33.03
2018-06-29T14:10:59.760Z,33.52
2018-06-29T14:13:28.942Z,33.83
2018-06-29T14:15:58.115Z,34.16
2018-06-29T14:18:27.154Z,34.38
2018-06-29T14:20:56.611Z,34.45
2018-06-29T14:23:25.735Z,34.01
2018-06-29T14:25:54.830Z,34.22
2018-06-29T14:28:23.914Z,34.15
2018-06-29T14:30:53.008Z,34.31
2018-06-29T14:33:22.229Z,33.96
2018-06-29T14:35:51.171Z,33.78
2018-06-29T14:38:20.376Z,34.03
2018-06-29T14:40:49.554Z,34.60
2018-06-29T14:43:18.555Z,34.77
2018-06-29T14:45:47.738Z,34.61
2018-06-29T14:48:17.771Z,33.45
2018-06-29T14:50:46.929Z,33.41
2018-06-29T14:53:15.983Z,33.74
2018-06-29T14:55:46.154Z,34.26
2018-06-29T14:58:15.231Z,34.64
2018-06-29T15:00:44.297Z,35.01
2018-06-29T15:03:13.497Z,35.02
2018-06-29T15:05:43.773Z,35.60
2018-06-29T15:08:12.923Z,35.86
2018-06-29T15:10:41.968Z,35.69
2018-06-29T15:13:11.511Z,35.90
2018-06-29T15:15:40.675Z,36.05
2018-06-29T15:18:09.749Z,36.06
2018-06-29T15:20:38.871Z,35.63
2018-06-29T15:23:08.011Z,35.38
2018-06-29T15:25:37.075Z,35.55
2018-06-29T15:28:07.033Z,34.76
2018-06-29T15:30:36.093Z,34.29
2018-06-29T15:33:05.294Z,34.61
2018-06-29T15:35:34.382Z,35.53
2018-06-29T15:38:04.345Z,36.03
2018-06-29T15:40:33.721Z,36.45
2018-06-29T15:43:02.862Z,36.24
2018-06-29T15:45:31.967Z,36.75
2018-06-29T15:48:01.038Z,36.71
2018-06-29T15:50:30.125Z,37.02
2018-06-29T15:52:59.239Z,37.32
2018-06-29T15:55:28.313Z,37.32
2018-06-29T15:57:57.539Z,36.30
2018-06-29T16:00:26.652Z,35.73
2018-06-29T16:02:55.764Z,36.20
2018-06-29T16:05:24.868Z,36.06
2018-06-29T16:07:54.137Z,35.77
2018-06-29T16:10:23.329Z,35.56
2018-06-29T16:12:52.846Z,35.06
2018-06-29T16:15:22.070Z,34.79
2018-06-29T16:17:51.304Z,34.66
2018-06-29T16:20:20.426Z,35.00
2018-06-29T16:22:49.507Z,35.69
2018-06-29T16:25:18.619Z,36.37
2018-06-29T16:27:47.800Z,36.81
2018-06-29T16:30:16.973Z,37.08
2018-06-29T16:32:46.093Z,37.02
2018-06-29T16:35:15.295Z,37.19
2018-06-29T16:37:45.027Z,37.70
2018-06-29T16:40:14.847Z,37.01
2018-06-29T16:42:43.927Z,37.21
2018-06-29T16:45:13.076Z,37.37
2018-06-29T16:47:42.170Z,37.61
2018-06-29T16:50:11.374Z,37.38
2018-06-29T16:52:40.449Z,37.72
2018-06-29T16:55:09.592Z,37.84
2018-06-29T16:57:38.687Z,37.97
2018-06-29T17:00:08.271Z,37.90
2018-06-29T17:02:37.657Z,38.05
2018-06-29T17:05:06.708Z,37.80
2018-06-29T17:07:35.846Z,37.47
2018-06-29T17:10:05.154Z,37.02
2018-06-29T17:12:34.576Z,36.48
2018-06-29T17:15:03.742Z,35.75
2018-06-29T17:17:32.840Z,35.04
2018-06-29T17:20:02.897Z,34.20
2018-06-29T17:22:32.083Z,33.86
2018-06-29T17:25:01.137Z,33.13
2018-06-29T17:27:30.257Z,32.76
2018-06-29T17:29:59.708Z,32.79
2018-06-29T17:32:28.890Z,32.81
2018-06-29T17:34:57.959Z,32.80
2018-06-29T17:37:27.079Z,32.61
2018-06-29T17:39:56.190Z,32.65
2018-06-29T17:42:25.314Z,32.68
2018-06-29T17:44:55.395Z,32.72
2018-06-29T17:47:24.487Z,32.65
2018-06-29T17:49:53.539Z,32.43
2018-06-29T17:52:22.759Z,32.10
2018-06-29T17:54:51.791Z,31.89
2018-06-29T17:57:20.855Z,31.76
2018-06-29T17:59:49.974Z,31.91
2018-06-29T18:02:19.067Z,31.97
2018-06-29T18:04:48.113Z,31.85
2018-06-29T18:07:17.206Z,31.54
2018-06-29T18:09:46.346Z,31.67
2018-06-29T18:12:15.551Z,31.67
2018-06-29T18:14:44.682Z,31.46
2018-06-29T18:17:13.749Z,31.46
2018-06-29T18:19:42.869Z,31.43
2018-06-29T18:22:11.958Z,31.41
2018-06-29T18:24:41.183Z,31.47
2018-06-29T18:27:10.239Z,31.49
2018-06-29T18:29:44.982Z,31.49
2018-06-29T18:32:14.185Z,31.15
2018-06-29T18:34:43.349Z,31.24
2018-06-29T18:37:12.440Z,31.25
2018-06-29T18:39:41.526Z,31.29
2018-06-29T18:42:10.600Z,31.15
2018-06-29T18:44:40.774Z,31.42
2018-06-29T18:47:10.059Z,31.43
2018-06-29T18:49:39.377Z,31.41
2018-06-29T18:52:08.433Z,31.36
2018-06-29T18:54:37.544Z,31.24
2018-06-29T18:57:06.570Z,31.19
2018-06-29T18:59:35.683Z,30.99
2018-06-29T19:02:04.821Z,31.01
2018-06-29T19:04:34.092Z,31.07
2018-06-29T19:07:03.193Z,31.04
2018-06-29T19:09:32.381Z,31.02
2018-06-29T19:12:01.481Z,31.01
2018-06-29T19:14:30.660Z,30.97
2018-06-29T19:16:59.774Z,30.93
2018-06-29T19:19:28.830Z,30.84
2018-06-29T19:21:57.964Z,30.77
2018-06-29T19:24:27.115Z,30.77
2018-06-29T19:26:56.238Z,30.74
2018-06-29T19:29:25.328Z,30.68
2018-06-29T19:31:54.478Z,30.58
2018-06-29T19:34:23.558Z,30.38
2018-06-29T19:36:52.795Z,30.27
2018-06-29T19:39:21.914Z,29.93
2018-06-29T19:41:51.182Z,30.11
2018-06-29T19:44:20.314Z,30.03
2018-06-29T19:46:49.476Z,29.95
2018-06-29T19:49:18.690Z,29.84
2018-06-29T19:51:47.853Z,29.73
2018-06-29T19:54:16.986Z,29.55
2018-06-29T19:56:46.121Z,29.35
2018-06-29T19:59:15.248Z,29.15
2018-06-29T20:01:44.481Z,28.96
2018-06-29T20:04:13.595Z,28.81
2018-06-29T20:06:43.084Z,28.69
2018-06-29T20:09:13.503Z,26.04
2018-06-29T20:11:42.692Z,28.58
2018-06-29T20:14:13.813Z,28.56
2018-06-29T20:16:43.043Z,28.47
2018-06-29T20:19:12.172Z,28.48
2018-06-29T20:21:41.418Z,28.27
2018-06-29T20:24:10.455Z,27.94
2018-06-29T20:26:39.530Z,27.55
2018-06-29T20:29:08.595Z,27.56
2018-06-29T20:31:37.768Z,27.72
2018-06-29T20:34:06.905Z,27.83
2018-06-29T20:36:35.999Z,27.89
2018-06-29T20:39:08.059Z,27.70
2018-06-29T20:41:37.114Z,27.48
2018-06-29T20:44:06.492Z,27.32
2018-06-29T20:46:35.668Z,27.35
2018-06-29T20:49:04.882Z,27.55
2018-06-29T20:51:33.997Z,27.53
2018-06-29T20:54:03.406Z,27.51
2018-06-29T20:56:32.582Z,27.26
2018-06-29T20:59:03.498Z,27.25
2018-06-29T21:01:32.622Z,27.18
2018-06-29T21:04:01.807Z,27.07
2018-06-29T21:06:31.346Z,26.92
2018-06-29T21:09:01.005Z,27.10
2018-06-29T21:11:30.162Z,26.97
2018-06-29T21:13:59.353Z,26.64
2018-06-29T21:16:28.391Z,26.41
2018-06-29T21:18:57.502Z,26.41
2018-06-29T21:21:26.628Z,26.46
2018-06-29T21:23:55.713Z,26.33
2018-06-29T21:26:24.938Z,26.31
2018-06-29T21:28:54.054Z,26.26
2018-06-29T21:31:23.158Z,26.33
2018-06-29T21:33:52.635Z,26.39
2018-06-29T21:36:21.805Z,26.30
2018-06-29T21:38:50.921Z,26.09
2018-06-29T21:41:20.169Z,26.22
2018-06-29T21:43:49.336Z,26.11
2018-06-29T21:46:22.142Z,26.10
2018-06-29T21:48:52.975Z,26.11
2018-06-29T21:51:22.102Z,26.35
2018-06-29T21:53:51.134Z,26.59
2018-06-29T21:56:20.425Z,26.71
2018-06-29T21:58:49.539Z,26.84
2018-06-29T22:01:18.675Z,27.01
2018-06-29T22:03:47.738Z,27.01
2018-06-29T22:06:16.910Z,26.99
2018-06-29T22:08:46.162Z,26.97
2018-06-29T22:11:15.872Z,26.36
2018-06-29T22:13:44.968Z,25.71
2018-06-29T22:16:14.303Z,25.45
2018-06-29T22:18:44.253Z,25.45
2018-06-29T22:21:13.560Z,25.24
2018-06-29T22:23:42.737Z,24.94
2018-06-29T22:26:11.848Z,24.75
2018-06-29T22:28:41.061Z,24.64
2018-06-29T22:31:10.186Z,24.52
2018-06-29T22:33:39.241Z,24.43
2018-06-29T22:36:08.369Z,24.50
2018-06-29T22:38:37.586Z,24.39
2018-06-29T22:41:06.715Z,24.46
2018-06-29T22:43:35.835Z,24.51
2018-06-29T22:46:04.934Z,24.49
2018-06-29T22:48:34.446Z,24.29
2018-06-29T22:51:03.537Z,24.26
2018-06-29T22:53:32.682Z,24.21
2018-06-29T22:56:02.009Z,24.15
2018-06-29T22:58:31.212Z,24.06
2018-06-29T23:01:00.478Z,24.02
2018-06-29T23:03:34.832Z,23.98
2018-06-29T23:06:03.946Z,23.86
2018-06-29T23:08:33.062Z,23.78
2018-06-29T23:11:02.133Z,23.62
2018-06-29T23:13:31.209Z,23.50
2018-06-29T23:16:00.273Z,23.50
2018-06-29T23:18:29.661Z,23.58
2018-06-29T23:20:58.753Z,23.47
2018-06-29T23:23:28.017Z,23.47
2018-06-29T23:25:57.422Z,23.40
2018-06-29T23:28:26.568Z,23.37
2018-06-29T23:30:56.031Z,23.35
2018-06-29T23:33:25.247Z,23.07
2018-06-29T23:35:54.469Z,23.14
2018-06-29T23:38:23.557Z,23.08
2018-06-29T23:40:52.648Z,22.95
2018-06-29T23:43:21.720Z,22.90
2018-06-29T23:45:50.846Z,22.87
2018-06-29T23:48:20.002Z,22.75
2018-06-29T23:50:49.094Z,22.67
2018-06-29T23:53:18.148Z,22.61
2018-06-29T23:55:47.272Z,22.64
2018-06-29T23:58:16.384Z,22.68
